Time;durP1;ratioP1;P1;durP2;ratioP2;P2;SDS_P1;SDS_P2;PMS_P1;PMS_P2;Temp;Humidity;BMP_temperature;BMP_pressure;BME280_temperature;BME280_humidity;BME280_pressure;Samples;Min_cycle;Max_cycle;Signal;HPM_P1;HPM_P2
2021/10/14 00:00:40;;;;;;;1.20;1.00;;;7.50;98.00;;;;;;5072706;28;20966;-67
2021/10/14 00:03:08;;;;;;;1.20;1.10;;;7.40;98.00;;;;;;5072876;28;20482;-67
2021/10/14 00:05:35;;;;;;;1.20;1.03;;;7.50;98.00;;;;;;5072657;28;20517;-67
2021/10/14 00:08:04;;;;;;;1.30;1.10;;;7.70;98.00;;;;;;5072735;28;20500;-67
2021/10/14 00:10:31;;;;;;;1.23;1.10;;;7.60;98.00;;;;;;5072448;28;20547;-67
2021/10/14 00:13:00;;;;;;;1.30;1.30;;;7.70;98.00;;;;;;5073005;28;20871;-66
2021/10/14 00:15:27;;;;;;;1.20;1.00;;;7.60;98.00;;;;;;5072485;28;20851;-67
2021/10/14 00:17:54;;;;;;;1.30;1.17;;;7.60;98.00;;;;;;5072659;28;20489;-66
2021/10/14 00:20:22;;;;;;;1.20;1.00;;;7.60;98.00;;;;;;5072378;28;20484;-67
2021/10/14 00:22:49;;;;;;;1.50;1.30;;;7.60;98.00;;;;;;5072593;28;20520;-67
2021/10/14 00:25:18;;;;;;;1.20;1.10;;;7.50;98.00;;;;;;5072245;28;20521;-67
2021/10/14 00:27:45;;;;;;;1.20;0.90;;;7.40;98.00;;;;;;5072268;28;20472;-67
2021/10/14 00:30:14;;;;;;;3.20;1.40;;;7.40;98.00;;;;;;5072332;28;20455;-67
2021/10/14 00:32:41;;;;;;;1.87;1.60;;;7.40;98.00;;;;;;5072201;28;20857;-67
2021/10/14 00:35:09;;;;;;;1.43;1.17;;;7.30;98.00;;;;;;5072328;28;20497;-67
2021/10/14 00:37:36;;;;;;;1.93;1.73;;;7.40;98.00;;;;;;5072549;28;20446;-67
2021/10/14 00:40:04;;;;;;;1.50;1.10;;;7.40;98.00;;;;;;5072100;28;20506;-67
2021/10/14 00:42:31;;;;;;;1.20;1.00;;;7.40;98.00;;;;;;5072209;28;20483;-66
2021/10/14 00:44:58;;;;;;;1.20;1.00;;;7.40;98.00;;;;;;5072272;28;21025;-66
2021/10/14 00:47:28;;;;;;;1.80;1.20;;;7.40;98.00;;;;;;5054542;28;20463;-66
2021/10/14 00:49:57;;;;;;;2.03;1.10;;;7.40;98.00;;;;;;5072095;28;20500;-67
2021/10/14 00:52:25;;;;;;;1.40;1.20;;;7.40;98.00;;;;;;5072078;28;20694;-67
2021/10/14 00:54:55;;;;;;;1.20;1.00;;;7.30;98.00;;;;;;5071710;28;20885;-66
2021/10/14 00:57:22;;;;;;;1.20;1.00;;;7.00;98.00;;;;;;5071726;28;20458;-67
2021/10/14 00:59:50;;;;;;;1.30;1.20;;;6.90;98.00;;;;;;5071741;28;20487;-67
2021/10/14 01:02:17;;;;;;;1.20;1.00;;;7.10;98.00;;;;;;5071743;28;20518;-66
2021/10/14 01:04:45;;;;;;;1.20;1.00;;;7.10;98.00;;;;;;5071546;28;20542;-67
2021/10/14 01:07:12;;;;;;;1.20;1.00;;;7.00;98.00;;;;;;5071798;28;20519;-67
2021/10/14 01:09:40;;;;;;;1.77;1.17;;;7.10;98.00;;;;;;5071276;28;20469;-67
2021/10/14 01:12:09;;;;;;;1.20;1.00;;;7.10;98.00;;;;;;5071632;28;20464;-66
2021/10/14 01:14:36;;;;;;;1.20;1.00;;;7.10;98.00;;;;;;5071668;28;20503;-67
2021/10/14 01:17:03;;;;;;;1.97;1.37;;;7.20;98.00;;;;;;5071671;28;20454;-67
2021/10/14 01:19:31;;;;;;;1.20;1.00;;;7.20;98.00;;;;;;5071614;28;20516;-67
2021/10/14 01:21:59;;;;;;;1.23;1.03;;;7.00;98.00;;;;;;5071580;28;20517;-67
2021/10/14 01:24:26;;;;;;;1.20;1.00;;;7.20;98.00;;;;;;5053754;28;20481;-67
2021/10/14 01:26:53;;;;;;;2.33;1.07;;;7.20;98.00;;;;;;5071556;28;20957;-67
2021/10/14 01:29:20;;;;;;;1.20;0.90;;;7.10;98.00;;;;;;5071494;28;20810;-67
2021/10/14 01:31:47;;;;;;;1.37;1.30;;;6.90;98.00;;;;;;5071473;28;20948;-67
2021/10/14 01:34:16;;;;;;;1.70;1.30;;;6.80;98.00;;;;;;5071509;28;20499;-67
2021/10/14 01:36:43;;;;;;;1.40;1.10;;;6.70;98.00;;;;;;5071523;28;20997;-66
2021/10/14 01:39:11;;;;;;;1.20;1.20;;;6.60;98.00;;;;;;5071383;28;20519;-67
2021/10/14 01:41:38;;;;;;;1.20;1.00;;;6.50;98.00;;;;;;5071520;28;20542;-67
2021/10/14 01:44:06;;;;;;;1.50;1.30;;;6.60;98.00;;;;;;5071313;28;20530;-67
2021/10/14 01:46:33;;;;;;;1.30;1.10;;;6.70;98.00;;;;;;5071297;28;20466;-67
2021/10/14 01:48:59;;;;;;;1.20;1.00;;;6.80;98.00;;;;;;5071389;28;20449;-66
2021/10/14 01:51:26;;;;;;;1.20;1.20;;;6.80;98.00;;;;;;5070610;28;21048;-66
2021/10/14 01:53:55;;;;;;;2.37;1.30;;;6.80;98.00;;;;;;5071247;28;20463;-67
2021/10/14 01:56:23;;;;;;;1.20;1.10;;;6.80;98.00;;;;;;5053857;28;20517;-67
2021/10/14 01:58:50;;;;;;;1.20;0.90;;;6.80;98.00;;;;;;5071312;28;21036;-67
2021/10/14 02:01:17;;;;;;;1.40;1.10;;;6.90;98.00;;;;;;5071465;28;20903;-67
2021/10/14 02:03:44;;;;;;;1.40;1.10;;;6.80;98.00;;;;;;5053543;28;20483;-67
2021/10/14 02:06:11;;;;;;;2.53;1.10;;;6.60;98.00;;;;;;5071382;28;20454;-67
2021/10/14 02:08:39;;;;;;;1.20;0.90;;;6.60;98.00;;;;;;5071360;28;21065;-67
2021/10/14 02:11:05;;;;;;;2.33;1.40;;;6.50;98.00;;;;;;5071255;28;20511;-67
2021/10/14 02:13:34;;;;;;;1.20;1.00;;;6.50;98.00;;;;;;5071450;28;20536;-67
2021/10/14 02:16:01;;;;;;;1.30;1.10;;;6.50;98.00;;;;;;5070900;28;20489;-66
2021/10/14 02:18:29;;;;;;;1.30;1.30;;;6.60;98.00;;;;;;5071351;28;20464;-67
2021/10/14 02:20:56;;;;;;;1.30;1.20;;;6.80;98.00;;;;;;5072857;28;20491;-67
2021/10/14 02:23:23;;;;;;;1.20;1.03;;;6.80;98.00;;;;;;5074627;28;20936;-67
2021/10/14 02:25:50;;;;;;;1.30;1.10;;;6.80;98.00;;;;;;5074525;28;20523;-67
2021/10/14 02:28:17;;;;;;;1.47;1.30;;;6.70;98.00;;;;;;5074458;28;20502;-67
2021/10/14 02:30:45;;;;;;;2.17;1.40;;;6.70;98.00;;;;;;5074467;28;20514;-67
2021/10/14 02:33:12;;;;;;;1.20;1.00;;;6.70;98.00;;;;;;5074408;28;20521;-67
2021/10/14 02:35:39;;;;;;;1.20;1.00;;;6.70;98.00;;;;;;5074550;28;20537;-66
2021/10/14 02:38:06;;;;;;;1.20;1.00;;;6.50;98.00;;;;;;5074442;28;20534;-67
2021/10/14 02:40:33;;;;;;;1.20;1.00;;;6.50;98.00;;;;;;5074316;28;20468;-66
2021/10/14 02:43:01;;;;;;;2.30;1.13;;;6.50;98.00;;;;;;5074431;28;20491;-67
2021/10/14 02:45:28;;;;;;;1.20;0.90;;;6.40;98.00;;;;;;5074155;28;21010;-67
2021/10/14 02:48:00;;;;;;;1.40;1.20;;;6.40;98.00;;;;;;5074228;28;20509;-67
2021/10/14 02:50:27;;;;;;;1.20;1.10;;;6.30;98.00;;;;;;5074126;28;20450;-66
2021/10/14 02:52:55;;;;;;;1.23;1.07;;;6.20;98.00;;;;;;5074173;28;20528;-67
2021/10/14 02:55:22;;;;;;;1.20;1.00;;;6.20;98.00;;;;;;5074084;28;20556;-67
2021/10/14 02:57:49;;;;;;;1.60;1.10;;;6.20;98.00;;;;;;5074099;28;20933;-67
2021/10/14 03:00:16;;;;;;;1.20;0.93;;;6.00;98.00;;;;;;5056280;28;20480;-67
2021/10/14 03:02:43;;;;;;;1.20;1.00;;;6.00;98.00;;;;;;5056225;28;20487;-67
2021/10/14 03:05:12;;;;;;;1.20;1.00;;;6.00;98.00;;;;;;5073863;28;20917;-67
2021/10/14 03:07:39;;;;;;;1.30;1.00;;;6.00;98.00;;;;;;5073946;28;20992;-67
2021/10/14 03:10:07;;;;;;;2.17;1.30;;;6.10;98.00;;;;;;5073871;28;20464;-67
2021/10/14 03:12:34;;;;;;;1.20;0.90;;;6.20;98.00;;;;;;5056264;28;21052;-67
2021/10/14 03:15:01;;;;;;;1.20;1.00;;;6.20;98.00;;;;;;5073987;28;20459;-67
2021/10/14 03:17:28;;;;;;;1.93;1.10;;;6.20;98.00;;;;;;5073883;28;20457;-67
2021/10/14 03:19:55;;;;;;;1.20;1.00;;;6.20;98.00;;;;;;5073929;28;20493;-67
2021/10/14 03:22:24;;;;;;;1.20;1.00;;;6.30;98.00;;;;;;5073809;28;20554;-67
2021/10/14 03:24:51;;;;;;;1.20;1.00;;;6.40;98.00;;;;;;5073751;28;20542;-67
2021/10/14 03:27:18;;;;;;;1.20;1.00;;;6.20;98.00;;;;;;5055762;28;20455;-67
2021/10/14 03:29:45;;;;;;;1.20;1.00;;;6.20;98.00;;;;;;5073893;28;20972;-67
2021/10/14 03:32:12;;;;;;;1.30;1.10;;;6.20;98.00;;;;;;5073418;28;20559;-67
2021/10/14 03:34:39;;;;;;;1.20;1.10;;;6.20;98.00;;;;;;5073678;28;20511;-67
2021/10/14 03:37:06;;;;;;;1.20;1.00;;;5.90;98.00;;;;;;5073108;28;20486;-67
2021/10/14 03:39:35;;;;;;;1.80;1.60;;;5.80;98.00;;;;;;5073078;28;20494;-67
2021/10/14 03:42:05;;;;;;;2.13;1.53;;;5.70;98.00;;;;;;5072567;28;20493;-67
2021/10/14 03:44:32;;;;;;;1.20;0.93;;;5.70;98.00;;;;;;5072450;28;20465;-67
2021/10/14 03:47:00;;;;;;;1.30;1.07;;;5.80;98.00;;;;;;5072732;28;20478;-66
2021/10/14 03:49:27;;;;;;;1.50;1.17;;;5.90;98.00;;;;;;5072936;28;20487;-67
2021/10/14 03:51:55;;;;;;;1.20;1.00;;;6.20;98.00;;;;;;5055405;28;20452;-66
2021/10/14 03:54:22;;;;;;;1.20;1.20;;;6.20;98.00;;;;;;5072810;28;20501;-67
2021/10/14 03:56:50;;;;;;;1.50;1.23;;;6.30;98.00;;;;;;5072995;28;20494;-66
2021/10/14 03:59:17;;;;;;;2.13;1.27;;;6.20;98.00;;;;;;5072792;28;20463;-67
2021/10/14 04:01:44;;;;;;;3.20;1.20;;;6.00;98.00;;;;;;5072787;28;20463;-66
2021/10/14 04:04:11;;;;;;;1.30;1.20;;;5.90;98.00;;;;;;5072650;28;20501;-67
2021/10/14 04:06:38;;;;;;;3.70;1.20;;;5.90;98.00;;;;;;5072598;28;20482;-66
2021/10/14 04:09:05;;;;;;;2.90;1.40;;;5.80;98.00;;;;;;5072621;28;20455;-67
2021/10/14 04:11:32;;;;;;;1.30;1.20;;;5.80;98.00;;;;;;5072660;28;20460;-67
2021/10/14 04:14:01;;;;;;;1.30;1.00;;;5.80;98.00;;;;;;5072681;28;20520;-67
2021/10/14 04:16:28;;;;;;;1.90;1.37;;;5.90;98.00;;;;;;5055001;28;20459;-67
2021/10/14 04:18:54;;;;;;;1.20;1.00;;;5.80;98.00;;;;;;5072488;28;20456;-66
2021/10/14 04:21:21;;;;;;;1.20;0.90;;;5.90;98.00;;;;;;5072310;28;20466;-67
2021/10/14 04:23:48;;;;;;;1.20;1.10;;;5.80;98.00;;;;;;5054737;28;20456;-67
2021/10/14 04:26:15;;;;;;;1.20;1.00;;;5.80;98.00;;;;;;5072631;28;20535;-67
2021/10/14 04:28:42;;;;;;;1.20;1.00;;;5.80;98.00;;;;;;5072143;28;20497;-67
2021/10/14 04:31:12;;;;;;;2.17;1.37;;;5.80;98.00;;;;;;5072363;28;20510;-67
2021/10/14 04:33:39;;;;;;;1.20;1.00;;;5.80;98.00;;;;;;5072284;28;20459;-66
2021/10/14 04:36:06;;;;;;;1.20;1.10;;;5.90;98.00;;;;;;5072650;28;20488;-67
2021/10/14 04:38:33;;;;;;;1.20;0.90;;;5.80;98.00;;;;;;5072193;28;20492;-67
2021/10/14 04:41:00;;;;;;;1.30;1.10;;;5.90;98.00;;;;;;5072384;28;20466;-67
2021/10/14 04:43:27;;;;;;;1.30;1.10;;;5.90;98.00;;;;;;5071687;28;20513;-67
2021/10/14 04:45:55;;;;;;;1.20;1.00;;;6.10;98.00;;;;;;5072107;28;20544;-67
2021/10/14 04:48:23;;;;;;;1.20;0.97;;;5.90;98.00;;;;;;5054450;28;20510;-67
2021/10/14 04:50:50;;;;;;;1.17;0.90;;;5.80;98.00;;;;;;5072375;28;20459;-66
2021/10/14 04:53:17;;;;;;;1.70;1.20;;;5.70;98.00;;;;;;5072107;28;20803;-67
2021/10/14 04:55:44;;;;;;;1.60;1.00;;;5.70;98.00;;;;;;5072013;28;20448;-67
2021/10/14 04:58:11;;;;;;;1.20;1.10;;;5.90;98.00;;;;;;5071851;28;20457;-66
2021/10/14 05:00:38;;;;;;;2.83;1.10;;;5.90;98.00;;;;;;5071757;28;20856;-66
2021/10/14 05:03:05;;;;;;;1.50;1.47;;;5.80;98.00;;;;;;5071977;28;20489;-67
2021/10/14 05:05:33;;;;;;;1.23;1.10;;;5.90;98.00;;;;;;5071541;28;20627;-67
2021/10/14 05:08:00;;;;;;;1.20;1.00;;;5.80;98.00;;;;;;5071611;28;20500;-67
2021/10/14 05:10:27;;;;;;;1.50;1.27;;;5.70;98.00;;;;;;5071625;28;20460;-67
2021/10/14 05:12:55;;;;;;;1.70;1.10;;;5.80;98.00;;;;;;5071727;28;21139;-66
2021/10/14 05:15:22;;;;;;;2.80;1.43;;;5.90;98.00;;;;;;5071451;28;20454;-67
2021/10/14 05:17:49;;;;;;;1.50;1.20;;;6.00;98.00;;;;;;5071607;28;20860;-67
2021/10/14 05:20:15;;;;;;;1.37;1.20;;;6.10;98.00;;;;;;5071626;28;20523;-67
2021/10/14 05:22:44;;;;;;;1.20;1.00;;;6.10;98.00;;;;;;5071510;28;20799;-67
2021/10/14 05:25:12;;;;;;;1.30;1.20;;;6.30;98.00;;;;;;5071414;28;20591;-67
2021/10/14 05:27:39;;;;;;;1.20;1.00;;;6.40;98.00;;;;;;5071485;28;20963;-67
2021/10/14 05:30:07;;;;;;;1.50;1.10;;;6.50;98.00;;;;;;5071571;28;21009;-66
2021/10/14 05:32:34;;;;;;;1.80;1.10;;;6.50;98.00;;;;;;5071556;28;20530;-66
2021/10/14 05:35:01;;;;;;;1.20;1.00;;;6.60;98.00;;;;;;5071469;28;20455;-67
2021/10/14 05:37:28;;;;;;;1.20;1.00;;;6.70;98.00;;;;;;5071575;28;20511;-66
2021/10/14 05:39:57;;;;;;;1.40;1.20;;;6.80;98.00;;;;;;5071647;28;20462;-67
2021/10/14 05:42:24;;;;;;;1.20;1.00;;;6.90;98.00;;;;;;5071367;28;20459;-66
2021/10/14 05:44:51;;;;;;;1.30;1.30;;;7.00;98.00;;;;;;5071481;28;20458;-66
2021/10/14 05:47:18;;;;;;;2.40;1.10;;;6.90;98.00;;;;;;5069528;28;20451;-65
2021/10/14 05:49:45;;;;;;;1.20;1.03;;;6.90;98.00;;;;;;5071275;28;20848;-66
2021/10/14 05:52:12;;;;;;;1.60;1.30;;;6.80;98.00;;;;;;5071429;28;20489;-66
2021/10/14 05:54:39;;;;;;;1.87;1.20;;;6.80;98.00;;;;;;5072825;28;20459;-66
2021/10/14 05:57:07;;;;;;;1.20;1.10;;;6.80;98.00;;;;;;5075327;28;20456;-66
2021/10/14 05:59:35;;;;;;;1.20;1.10;;;6.60;98.00;;;;;;5057232;28;20459;-66
2021/10/14 06:02:02;;;;;;;1.20;1.03;;;6.50;98.00;;;;;;5075199;28;20501;-66
2021/10/14 06:04:29;;;;;;;1.30;1.00;;;6.50;98.00;;;;;;5075039;28;20455;-66
2021/10/14 06:06:56;;;;;;;1.20;1.10;;;6.50;98.00;;;;;;5075174;28;20550;-65
2021/10/14 06:09:23;;;;;;;1.20;1.07;;;6.60;98.00;;;;;;5074945;28;20495;-67
2021/10/14 06:11:50;;;;;;;1.37;1.10;;;6.60;98.00;;;;;;5075284;28;20486;-66
2021/10/14 06:14:18;;;;;;;1.20;1.10;;;6.60;98.00;;;;;;5075026;28;20449;-66
2021/10/14 06:16:45;;;;;;;1.17;1.00;;;6.70;98.00;;;;;;5074842;28;20516;-67
2021/10/14 06:19:12;;;;;;;1.20;0.90;;;6.70;98.00;;;;;;5074578;28;21035;-67
2021/10/14 06:21:39;;;;;;;1.63;1.60;;;6.70;98.00;;;;;;5074412;28;20452;-66
2021/10/14 06:24:07;;;;;;;1.40;1.07;;;6.70;98.00;;;;;;5074730;28;20510;-66
2021/10/14 06:26:34;;;;;;;1.20;1.00;;;6.80;98.00;;;;;;5073885;28;20489;-67
2021/10/14 06:29:01;;;;;;;1.30;1.20;;;6.80;98.00;;;;;;5074542;28;20472;-65
2021/10/14 06:31:29;;;;;;;1.20;1.00;;;7.10;98.00;;;;;;5056488;28;20484;-66
2021/10/14 06:33:56;;;;;;;1.20;1.00;;;7.20;98.00;;;;;;5074664;28;20517;-66
2021/10/14 06:36:25;;;;;;;1.30;1.20;;;7.20;98.00;;;;;;5074257;28;20944;-66
2021/10/14 06:38:52;;;;;;;1.20;1.10;;;7.10;98.00;;;;;;5074598;28;20461;-66
2021/10/14 06:41:19;;;;;;;1.63;1.43;;;7.30;98.00;;;;;;5074088;28;20493;-65
2021/10/14 06:43:46;;;;;;;1.30;1.10;;;7.30;98.00;;;;;;5074285;28;20852;-65
2021/10/14 06:46:14;;;;;;;1.20;1.10;;;7.40;98.00;;;;;;5074072;28;20488;-65
2021/10/14 06:48:43;;;;;;;1.50;1.27;;;7.50;98.00;;;;;;5074277;28;20846;-65
2021/10/14 06:51:10;;;;;;;1.37;1.10;;;7.50;98.00;;;;;;5074343;28;20457;-65
2021/10/14 06:53:37;;;;;;;1.30;1.10;;;7.60;98.00;;;;;;5073937;28;20492;-66
2021/10/14 06:56:05;;;;;;;1.77;1.20;;;7.50;98.00;;;;;;5074056;28;20504;-65
2021/10/14 06:58:32;;;;;;;1.30;1.20;;;7.40;98.00;;;;;;5073802;28;20454;-65
2021/10/14 07:00:59;;;;;;;1.23;1.03;;;7.40;98.00;;;;;;5056313;28;20843;-65
2021/10/14 07:03:26;;;;;;;1.43;1.23;;;7.30;98.00;;;;;;5070208;28;20471;-68
2021/10/14 07:05:54;;;;;;;1.40;1.10;;;7.20;98.00;;;;;;5062440;28;20609;-66
2021/10/14 07:08:24;;;;;;;1.20;1.00;;;7.30;98.00;;;;;;5057629;28;20461;-67
2021/10/14 07:10:51;;;;;;;1.30;1.20;;;7.60;98.00;;;;;;5051025;28;20462;-66
2021/10/14 07:13:27;;;;;;;1.30;1.13;;;7.80;98.00;;;;;;5069988;28;20826;-64
2021/10/14 07:15:54;;;;;;;1.20;1.10;;;7.90;98.00;;;;;;5049195;28;20505;-66
2021/10/14 07:18:21;;;;;;;1.33;1.20;;;8.00;98.00;;;;;;5055647;28;20869;-66
2021/10/14 07:20:48;;;;;;;1.20;1.10;;;8.10;98.00;;;;;;5056908;28;21138;-66
2021/10/14 07:23:17;;;;;;;1.20;0.90;;;8.20;98.00;;;;;;5064823;28;20554;-66
2021/10/14 07:25:45;;;;;;;1.63;1.20;;;8.20;98.00;;;;;;5060763;28;20503;-66
2021/10/14 07:28:12;;;;;;;1.20;1.10;;;8.20;98.00;;;;;;5065799;28;20462;-66
2021/10/14 07:30:41;;;;;;;1.10;0.90;;;8.20;98.00;;;;;;5053428;28;20457;-66
2021/10/14 07:33:08;;;;;;;1.40;1.07;;;8.30;98.00;;;;;;5064915;28;20519;-65
2021/10/14 07:35:36;;;;;;;1.10;1.00;;;8.80;98.00;;;;;;5058642;28;20476;-66
2021/10/14 07:38:09;;;;;;;1.67;1.30;;;9.70;98.00;;;;;;5060186;28;20907;-66
2021/10/14 07:40:40;;;;;;;1.10;1.10;;;10.10;98.00;;;;;;5064291;28;20461;-67
2021/10/14 07:43:08;;;;;;;1.40;1.30;;;10.60;98.00;;;;;;5065311;28;20838;-67
2021/10/14 07:45:47;;;;;;;2.40;1.25;;;10.70;98.00;;;;;;5055219;28;20863;-67
2021/10/14 07:48:14;;;;;;;1.30;1.20;;;10.50;98.00;;;;;;5042655;28;20814;-68
2021/10/14 07:50:41;;;;;;;1.43;1.33;;;10.50;98.00;;;;;;5059032;28;20541;-67
2021/10/14 07:53:12;;;;;;;1.30;1.23;;;10.00;98.00;;;;;;5059806;28;20476;-67
2021/10/14 07:55:42;;;;;;;1.20;1.20;;;9.70;98.00;;;;;;5068574;28;20518;-67
2021/10/14 07:58:09;;;;;;;1.20;1.10;;;9.60;98.00;;;;;;5053197;28;20954;-67
2021/10/14 08:00:37;;;;;;;1.20;1.10;;;9.60;98.00;;;;;;5065277;28;20453;-67
2021/10/14 08:03:04;;;;;;;1.87;1.27;;;9.70;98.00;;;;;;5055287;28;20548;-67
2021/10/14 08:05:31;;;;;;;1.83;1.33;;;9.70;98.00;;;;;;5052504;28;20603;-66
2021/10/14 08:07:59;;;;;;;2.43;1.90;;;9.70;98.00;;;;;;5052579;28;20480;-67
2021/10/14 08:10:26;;;;;;;1.50;1.10;;;9.80;98.00;;;;;;5052325;28;20484;-67
2021/10/14 08:12:55;;;;;;;3.40;1.53;;;9.80;98.00;;;;;;5052476;28;20484;-67
2021/10/14 08:15:24;;;;;;;1.37;1.13;;;9.60;98.00;;;;;;5052460;28;20482;-67
2021/10/14 08:17:51;;;;;;;1.20;1.00;;;9.70;98.00;;;;;;5034246;28;20457;-66
2021/10/14 08:20:19;;;;;;;1.63;1.20;;;9.70;98.00;;;;;;5052247;28;20459;-66
2021/10/14 08:22:46;;;;;;;1.23;1.10;;;9.70;98.00;;;;;;5018776;28;20523;-66
2021/10/14 08:25:15;;;;;;;1.20;1.00;;;9.60;98.00;;;;;;5052621;28;20506;-66
2021/10/14 08:27:42;;;;;;;1.20;1.10;;;9.60;98.00;;;;;;5051939;28;21147;-64
2021/10/14 08:30:16;;;;;;;1.43;1.10;;;9.60;98.00;;;;;;5052211;28;20462;-66
2021/10/14 08:32:43;;;;;;;1.20;1.03;;;9.70;98.00;;;;;;5052060;28;20468;-66
2021/10/14 08:35:12;;;;;;;1.50;1.10;;;9.80;98.00;;;;;;5052096;28;20810;-66
2021/10/14 08:37:39;;;;;;;1.20;1.00;;;9.60;98.00;;;;;;5051918;28;20530;-65
2021/10/14 08:40:07;;;;;;;4.50;2.20;;;9.70;98.00;;;;;;5051884;28;20626;-66
2021/10/14 08:42:37;;;;;;;1.50;1.20;;;9.70;98.00;;;;;;5051753;28;20514;-65
2021/10/14 08:45:06;;;;;;;1.20;1.00;;;9.80;98.00;;;;;;5050393;28;21233;-66
2021/10/14 08:47:35;;;;;;;1.20;1.10;;;9.80;98.00;;;;;;5051888;28;20524;-65
2021/10/14 08:50:02;;;;;;;1.40;1.20;;;9.90;98.00;;;;;;5052360;28;20563;-66
2021/10/14 08:52:29;;;;;;;1.20;1.00;;;10.00;98.00;;;;;;5052237;28;20464;-65
2021/10/14 08:54:57;;;;;;;1.20;1.10;;;10.20;98.00;;;;;;5052224;28;20511;-66
2021/10/14 08:57:24;;;;;;;1.20;1.00;;;10.40;98.00;;;;;;5034431;28;20455;-66
2021/10/14 08:59:51;;;;;;;1.20;1.00;;;10.50;98.00;;;;;;5051868;28;20497;-65
2021/10/14 09:02:19;;;;;;;1.20;1.00;;;10.70;98.00;;;;;;5052108;28;20490;-66
2021/10/14 09:04:59;;;;;;;1.33;1.30;;;10.90;98.00;;;;;;5051572;28;20819;-66
2021/10/14 09:07:28;;;;;;;1.77;1.53;;;11.00;98.00;;;;;;5051712;28;20517;-65
2021/10/14 09:09:57;;;;;;;1.20;1.10;;;11.20;98.00;;;;;;5051782;28;20453;-66
2021/10/14 09:12:24;;;;;;;1.43;1.20;;;11.30;98.00;;;;;;5051494;28;20594;-66
2021/10/14 09:14:57;;;;;;;1.97;1.20;;;11.30;98.00;;;;;;5051605;28;20542;-65
2021/10/14 09:17:52;;;;;;;1.20;0.90;;;11.40;98.00;;;;;;5051341;28;20453;-65
2021/10/14 09:20:36;;;;;;;1.53;1.13;;;11.40;98.00;;;;;;5004695;28;20976;-66
2021/10/14 09:23:07;;;;;;;1.20;1.20;;;11.40;98.00;;;;;;5050954;28;20472;-66
2021/10/14 09:25:36;;;;;;;1.20;1.03;;;11.40;98.00;;;;;;5050953;28;20476;-67
2021/10/14 09:28:16;;;;;;;1.30;1.20;;;11.50;98.00;;;;;;5051181;28;20497;-66
2021/10/14 09:30:51;;;;;;;1.40;1.10;;;11.50;98.00;;;;;;5057224;28;20461;-66
2021/10/14 09:33:35;;;;;;;1.40;1.13;;;11.50;98.00;;;;;;5058199;28;20468;-66
2021/10/14 09:36:20;;;;;;;1.20;1.07;;;11.70;98.00;;;;;;5057913;28;20547;-66
2021/10/14 09:38:50;;;;;;;1.30;1.10;;;11.80;98.00;;;;;;5057966;28;20463;-65
2021/10/14 09:41:21;;;;;;;1.57;1.10;;;11.70;98.00;;;;;;5057925;28;20458;-66
2021/10/14 09:43:50;;;;;;;1.80;1.37;;;11.70;98.00;;;;;;5058175;28;20477;-65
2021/10/14 09:46:37;;;;;;;1.20;1.00;;;11.80;98.00;;;;;;5057974;28;20462;-65
2021/10/14 09:49:06;;;;;;;1.37;1.20;;;12.00;98.00;;;;;;5058014;28;20957;-65
2021/10/14 09:51:34;;;;;;;1.20;0.90;;;12.00;98.00;;;;;;5040220;28;20463;-65
2021/10/14 09:54:02;;;;;;;2.30;1.33;;;12.10;98.00;;;;;;5058301;28;20459;-66
2021/10/14 09:56:30;;;;;;;1.50;1.30;;;12.00;98.00;;;;;;5057936;28;20458;-66
2021/10/14 09:58:59;;;;;;;2.27;1.40;;;12.00;98.00;;;;;;5058288;28;20956;-66
2021/10/14 10:01:26;;;;;;;1.53;1.33;;;12.10;98.00;;;;;;5058198;28;20464;-66
2021/10/14 10:03:53;;;;;;;1.60;1.20;;;12.30;98.00;;;;;;5058024;28;20543;-66
2021/10/14 10:06:27;;;;;;;1.70;1.30;;;12.40;98.00;;;;;;5057914;28;20504;-65
2021/10/14 10:08:59;;;;;;;1.20;1.00;;;12.50;98.00;;;;;;5058199;28;20517;-66
2021/10/14 10:11:27;;;;;;;1.20;1.00;;;12.80;98.00;;;;;;5040157;28;20484;-66
2021/10/14 10:13:57;;;;;;;2.67;2.17;;;13.20;98.00;;;;;;5057941;28;20487;-66
2021/10/14 10:16:26;;;;;;;1.40;1.30;;;13.20;98.00;;;;;;5057962;28;20466;-67
2021/10/14 10:18:54;;;;;;;1.20;1.10;;;13.20;98.00;;;;;;5058068;28;20465;-66
2021/10/14 10:21:41;;;;;;;1.40;1.00;;;13.20;98.00;;;;;;5057679;28;20518;-66
2021/10/14 10:24:24;;;;;;;1.93;1.20;;;13.20;98.00;;;;;;5057916;28;20461;-66
2021/10/14 10:26:52;;;;;;;1.63;1.20;;;13.20;98.00;;;;;;5057368;28;20545;-66
2021/10/14 10:29:36;;;;;;;1.20;1.10;;;13.40;98.00;;;;;;5057750;28;20465;-66
2021/10/14 10:32:20;;;;;;;1.33;1.30;;;13.70;98.00;;;;;;5057490;28;20464;-67
2021/10/14 10:34:53;;;;;;;1.70;1.30;;;14.00;98.00;;;;;;5057313;28;20455;-66
2021/10/14 10:37:23;;;;;;;1.20;1.00;;;14.10;98.00;;;;;;5057670;28;20513;-66
2021/10/14 10:39:55;;;;;;;1.30;1.20;;;14.50;98.00;;;;;;5057285;28;20933;-66
2021/10/14 10:42:27;;;;;;;1.20;1.20;;;14.50;98.00;;;;;;5053388;28;20820;-65
2021/10/14 10:44:55;;;;;;;1.33;1.10;;;14.40;98.00;;;;;;5036778;28;20446;-66
2021/10/14 10:47:41;;;;;;;1.50;1.40;;;14.50;98.00;;;;;;5054270;28;20484;-66
2021/10/14 10:50:13;;;;;;;2.07;1.30;;;14.60;98.00;;;;;;5054188;28;20854;-66
2021/10/14 10:52:42;;;;;;;1.20;1.17;;;14.60;98.00;;;;;;5054430;28;20516;-67
2021/10/14 10:55:37;;;;;;;1.30;1.13;;;14.50;98.00;;;;;;5036630;28;20561;-66
2021/10/14 10:58:07;;;;;;;2.13;1.50;;;14.40;98.00;;;;;;5054206;28;20931;-66
2021/10/14 11:00:34;;;;;;;1.30;1.10;;;14.40;98.00;;;;;;5053997;28;20503;-66
2021/10/14 11:03:13;;;;;;;1.50;1.40;;;14.30;98.00;;;;;;5054194;28;20514;-66
2021/10/14 11:05:45;;;;;;;1.30;1.20;;;14.40;98.00;;;;;;5054278;28;20499;-66
2021/10/14 11:08:16;;;;;;;1.40;1.20;;;14.30;98.00;;;;;;5053881;28;20541;-66
2021/10/14 11:10:46;;;;;;;1.20;1.10;;;14.40;98.00;;;;;;5036559;28;20547;-66
2021/10/14 11:13:13;;;;;;;1.30;1.27;;;14.50;98.00;;;;;;5053984;28;20949;-66
2021/10/14 11:15:40;;;;;;;1.70;1.20;;;14.70;98.00;;;;;;5053641;28;20936;-66
2021/10/14 11:18:08;;;;;;;1.27;1.20;;;14.90;98.00;;;;;;5053932;28;20467;-65
2021/10/14 11:20:36;;;;;;;1.20;1.10;;;15.10;98.00;;;;;;5053804;28;20519;-66
2021/10/14 11:23:05;;;;;;;1.47;1.30;;;15.50;98.00;;;;;;5053818;28;20631;-66
2021/10/14 11:25:33;;;;;;;1.30;1.10;;;15.50;96.80;;;;;;5053715;28;21076;-66
2021/10/14 11:28:06;;;;;;;1.50;1.30;;;15.40;96.90;;;;;;5045367;28;20993;-65
2021/10/14 11:30:41;;;;;;;1.57;1.20;;;15.50;98.00;;;;;;5032989;28;20500;-66
2021/10/14 11:33:14;;;;;;;1.20;1.00;;;15.50;97.30;;;;;;5033002;28;20456;-67
2021/10/14 11:35:41;;;;;;;1.40;1.30;;;15.50;98.00;;;;;;5032881;28;20450;-66
2021/10/14 11:38:13;;;;;;;1.60;1.30;;;15.30;97.90;;;;;;5032883;28;20518;-66
2021/10/14 11:40:41;;;;;;;1.40;1.23;;;15.40;98.00;;;;;;5032942;28;20459;-66
2021/10/14 11:43:11;;;;;;;1.37;1.33;;;15.60;98.00;;;;;;5033424;28;20478;-66
2021/10/14 11:45:44;;;;;;;1.50;1.27;;;16.00;97.20;;;;;;5032916;28;20468;-66
2021/10/14 11:48:31;;;;;;;1.20;1.10;;;16.60;97.30;;;;;;5032536;28;20566;-65
2021/10/14 11:51:03;;;;;;;1.50;1.30;;;17.00;96.40;;;;;;5032613;28;20847;-65
2021/10/14 11:53:30;;;;;;;1.50;1.50;;;16.90;93.70;;;;;;5032422;28;20539;-66
2021/10/14 11:55:58;;;;;;;1.47;1.27;;;16.70;94.70;;;;;;5032507;28;20459;-66
2021/10/14 11:58:28;;;;;;;1.40;1.40;;;16.50;95.50;;;;;;5014937;28;20470;-66
2021/10/14 12:01:00;;;;;;;1.67;1.40;;;16.30;94.20;;;;;;5032493;28;21096;-66
2021/10/14 12:03:28;;;;;;;1.20;1.20;;;16.20;95.20;;;;;;5032350;28;20815;-66
2021/10/14 12:05:56;;;;;;;1.20;1.07;;;16.00;94.90;;;;;;5032095;28;20955;-66
2021/10/14 12:08:25;;;;;;;2.90;1.87;;;15.70;96.50;;;;;;5032149;28;20520;-66
2021/10/14 12:10:54;;;;;;;1.57;1.30;;;15.70;98.00;;;;;;5014795;28;20453;-66
2021/10/14 12:13:28;;;;;;;1.37;1.30;;;15.70;97.40;;;;;;5032229;28;20488;-66
2021/10/14 12:16:09;;;;;;;1.40;1.13;;;15.60;98.00;;;;;;5032012;28;20454;-66
2021/10/14 12:18:37;;;;;;;2.13;1.53;;;15.40;98.00;;;;;;5031926;28;20488;-67
2021/10/14 12:21:06;;;;;;;1.20;1.20;;;15.40;98.00;;;;;;5014466;28;20457;-66
2021/10/14 12:23:35;;;;;;;1.53;1.20;;;15.40;98.00;;;;;;5031920;28;20553;-65
2021/10/14 12:26:13;;;;;;;1.20;1.10;;;15.30;98.00;;;;;;5014377;28;20458;-66
2021/10/14 12:28:44;;;;;;;1.30;1.10;;;15.50;98.00;;;;;;5031712;28;21072;-66
2021/10/14 12:31:13;;;;;;;1.30;1.10;;;15.50;97.40;;;;;;5031755;28;20468;-66
2021/10/14 12:33:40;;;;;;;1.70;1.30;;;15.80;98.00;;;;;;5014609;28;20555;-66
2021/10/14 12:36:07;;;;;;;2.13;1.30;;;16.20;97.90;;;;;;5031508;28;20503;-66
2021/10/14 12:38:36;;;;;;;1.20;1.10;;;16.60;96.20;;;;;;5031609;28;20514;-66
2021/10/14 12:41:06;;;;;;;2.03;1.50;;;16.80;94.80;;;;;;5031487;28;20961;-67
2021/10/14 12:43:48;;;;;;;1.37;1.20;;;16.50;94.50;;;;;;5014093;28;20464;-65
2021/10/14 12:46:25;;;;;;;1.57;1.40;;;16.60;94.20;;;;;;5031476;28;20477;-66
2021/10/14 12:49:21;;;;;;;1.47;1.20;;;16.50;95.20;;;;;;5031370;28;20893;-66
2021/10/14 12:51:50;;;;;;;1.30;1.20;;;16.60;95.60;;;;;;5015870;28;20520;-66
2021/10/14 12:54:20;;;;;;;5.77;1.83;;;16.50;95.90;;;;;;5031515;28;20522;-66
2021/10/14 12:56:50;;;;;;;2.63;1.33;;;16.40;94.20;;;;;;5031345;28;20454;-66
2021/10/14 12:59:20;;;;;;;1.30;1.20;;;16.30;96.80;;;;;;5031472;28;20879;-66
2021/10/14 13:01:49;;;;;;;1.50;1.50;;;16.10;97.20;;;;;;5031312;28;20494;-66